createdAt,value
2019-04-20T00:01:42.924Z,6.80
2019-04-20T00:04:19.441Z,6.70
2019-04-20T00:06:48.572Z,6.60
2019-04-20T00:09:21.323Z,6.60
2019-04-20T00:12:00.106Z,6.50
2019-04-20T00:14:26.282Z,6.50
2019-04-20T00:16:52.782Z,6.50
2019-04-20T00:19:32.207Z,6.50
2019-04-20T00:22:03.598Z,6.40
2019-04-20T00:24:39.330Z,6.40
2019-04-20T00:27:31.402Z,6.40
2019-04-20T00:29:58.728Z,6.40
2019-04-20T00:32:29.435Z,6.30
2019-04-20T00:34:48.933Z,6.30
2019-04-20T00:37:19.321Z,6.30
2019-04-20T00:40:09.884Z,6.20
2019-04-20T00:42:45.915Z,6.20
2019-04-20T00:45:19.138Z,6.10
2019-04-20T00:47:51.182Z,6.00
2019-04-20T00:50:34.193Z,6.00
2019-04-20T00:52:59.086Z,5.90
2019-04-20T00:55:20.905Z,5.90
2019-04-20T00:57:57.025Z,5.80
2019-04-20T01:00:42.498Z,5.80
2019-04-20T01:03:10.162Z,5.70
2019-04-20T01:05:59.677Z,5.70
2019-04-20T01:08:27.459Z,5.70
2019-04-20T01:10:59.357Z,5.60
2019-04-20T01:13:30.253Z,5.50
2019-04-20T01:16:08.467Z,5.50
2019-04-20T01:18:33.469Z,5.40
2019-04-20T01:21:06.559Z,5.30
2019-04-20T01:23:43.772Z,5.30
2019-04-20T01:26:11.472Z,5.30
2019-04-20T01:28:57.713Z,5.20
2019-04-20T01:31:21.914Z,5.10
2019-04-20T01:33:56.526Z,5.10
2019-04-20T01:36:36.957Z,5.00
2019-04-20T01:39:05.680Z,4.90
2019-04-20T01:41:20.332Z,4.90
2019-04-20T01:43:50.643Z,4.90
2019-04-20T01:46:24.816Z,4.80
2019-04-20T01:48:54.852Z,4.80
2019-04-20T01:51:28.586Z,4.80
2019-04-20T01:54:22.717Z,4.80
2019-04-20T01:56:47.628Z,4.70
2019-04-20T01:59:39.978Z,4.60
2019-04-20T02:02:23.218Z,4.60
2019-04-20T02:05:16.860Z,4.60
2019-04-20T02:07:48.562Z,4.50
2019-04-20T02:10:19.987Z,4.50
2019-04-20T02:12:55.637Z,4.50
2019-04-20T02:15:31.137Z,4.40
2019-04-20T02:18:08.849Z,4.40
2019-04-20T02:20:45.052Z,4.40
2019-04-20T02:23:10.735Z,4.30
2019-04-20T02:25:31.032Z,4.30
2019-04-20T02:28:18.958Z,4.30
2019-04-20T02:31:15.955Z,4.30
2019-04-20T02:33:42.784Z,4.30
2019-04-20T02:44:36.465Z,4.30
2019-04-20T02:52:04.554Z,4.20
2019-04-20T02:54:52.958Z,4.10
2019-04-20T02:57:14.342Z,4.10
2019-04-20T03:01:59.386Z,4.00
2019-04-20T03:04:25.824Z,3.90
2019-04-20T03:07:00.992Z,3.80
2019-04-20T03:09:36.487Z,3.80
2019-04-20T03:12:21.633Z,3.80
2019-04-20T03:14:35.283Z,3.70
2019-04-20T03:17:15.327Z,3.70
2019-04-20T03:19:41.462Z,3.60
2019-04-20T03:22:24.502Z,3.60
2019-04-20T03:24:56.572Z,3.60
2019-04-20T03:27:29.622Z,3.60
2019-04-20T03:30:40.247Z,3.60
2019-04-20T03:35:43.136Z,3.50
2019-04-20T03:38:10.714Z,3.50
2019-04-20T03:40:50.656Z,3.40
2019-04-20T03:43:09.873Z,3.50
2019-04-20T03:45:47.542Z,3.40
2019-04-20T03:48:29.497Z,3.40
2019-04-20T03:51:02.271Z,3.40
